createdAt,value
2023-02-21T00:02:10.566Z,6.20
2023-02-21T00:04:55.777Z,11.27
2023-02-21T00:07:41.068Z,8.90
2023-02-21T00:10:27.442Z,10.50
2023-02-21T00:13:12.647Z,10.88
2023-02-21T00:15:57.826Z,10.52
2023-02-21T00:18:43.085Z,7.70
2023-02-21T00:21:28.237Z,10.38
2023-02-21T00:24:13.384Z,10.05
2023-02-21T00:26:58.640Z,8.95
2023-02-21T00:29:43.582Z,7.78
2023-02-21T00:32:28.692Z,10.18
2023-02-21T00:35:13.967Z,8.15
2023-02-21T00:37:59.064Z,11.20
2023-02-21T00:40:44.404Z,9.85
2023-02-21T00:43:29.430Z,7.90
2023-02-21T00:46:14.699Z,16.40
2023-02-21T00:49:00.002Z,6.00
2023-02-21T00:51:46.034Z,10.10
2023-02-21T00:54:31.183Z,14.38
2023-02-21T00:57:16.258Z,7.22
2023-02-21T01:00:02.017Z,11.73
2023-02-21T01:02:47.134Z,9.32
2023-02-21T01:05:32.369Z,8.70
2023-02-21T01:08:17.771Z,13.82
2023-02-21T01:11:02.938Z,15.50
2023-02-21T01:13:48.108Z,14.65
2023-02-21T01:16:33.273Z,8.35
2023-02-21T01:19:18.529Z,19.50
2023-02-21T01:22:03.445Z,13.88
2023-02-21T01:24:48.723Z,14.70
2023-02-21T01:27:33.956Z,13.20
2023-02-21T01:30:19.138Z,11.25
2023-02-21T01:33:04.752Z,11.38
2023-02-21T01:35:49.925Z,12.77
2023-02-21T01:38:35.051Z,13.88
2023-02-21T01:41:20.449Z,10.05
2023-02-21T01:44:47.816Z,10.43
2023-02-21T01:47:32.871Z,11.30
2023-02-21T01:50:20.625Z,18.38
2023-02-21T01:53:08.177Z,11.20
2023-02-21T01:55:57.989Z,10.00
2023-02-21T01:58:45.660Z,10.68
2023-02-21T02:01:39.380Z,10.18
2023-02-21T02:04:24.648Z,10.98
2023-02-21T02:07:09.917Z,8.77
2023-02-21T02:09:55.050Z,11.00
2023-02-21T02:12:55.092Z,11.07
2023-02-21T02:15:38.568Z,10.40
2023-02-21T02:18:33.095Z,13.18
2023-02-21T02:21:28.688Z,10.98
2023-02-21T02:24:30.085Z,12.18
2023-02-21T02:27:21.194Z,14.15
2023-02-21T02:30:33.136Z,8.55
2023-02-21T02:33:27.614Z,8.02
2023-02-21T02:36:07.362Z,12.20
2023-02-21T02:38:51.980Z,12.45
2023-02-21T02:41:34.979Z,8.65
2023-02-21T02:44:19.704Z,15.00
2023-02-21T02:46:48.989Z,13.43
2023-02-21T02:49:25.515Z,9.00
2023-02-21T02:51:52.571Z,7.35
2023-02-21T02:54:22.182Z,9.13
2023-02-21T02:56:48.779Z,10.95
2023-02-21T02:59:29.905Z,11.55
2023-02-21T03:02:15.525Z,11.52
2023-02-21T03:05:01.355Z,9.48
2023-02-21T03:07:43.697Z,12.30
2023-02-21T03:10:32.192Z,10.32
2023-02-21T03:13:07.044Z,9.40
2023-02-21T03:15:41.660Z,11.77
2023-02-21T03:18:17.903Z,11.80
2023-02-21T03:20:50.253Z,18.40
2023-02-21T03:23:19.459Z,8.23
2023-02-21T03:25:48.168Z,17.00
2023-02-21T03:28:16.254Z,9.32
2023-02-21T03:30:45.883Z,12.38
2023-02-21T03:33:12.739Z,10.80
2023-02-21T03:35:39.704Z,9.60
2023-02-21T03:38:06.344Z,15.50
2023-02-21T03:40:34.461Z,10.65
2023-02-21T03:43:08.477Z,14.23
2023-02-21T03:45:44.688Z,10.02
2023-02-21T03:48:20.170Z,14.73
2023-02-21T03:50:53.277Z,11.30
2023-02-21T03:53:20.637Z,12.15
2023-02-21T03:55:47.490Z,14.43
2023-02-21T03:58:20.245Z,14.55
2023-02-21T04:00:47.311Z,10.15
2023-02-21T04:03:17.632Z,11.23
2023-02-21T04:05:50.963Z,7.97
2023-02-21T04:08:17.938Z,7.47
2023-02-21T04:10:52.161Z,14.70
2023-02-21T04:13:20.967Z,13.45
2023-02-21T04:15:48.343Z,11.93
2023-02-21T04:18:14.869Z,12.38
2023-02-21T04:20:41.965Z,12.07
2023-02-21T04:23:12.722Z,10.88
2023-02-21T04:25:39.342Z,8.85
2023-02-21T04:28:12.467Z,10.18
2023-02-21T04:30:39.065Z,10.73
2023-02-21T04:33:05.794Z,14.18
2023-02-21T04:35:32.766Z,12.75
2023-02-21T04:38:03.509Z,12.98
2023-02-21T04:40:30.057Z,16.67
2023-02-21T04:42:56.650Z,11.73
2023-02-21T04:45:23.312Z,12.35
2023-02-21T04:47:49.904Z,14.70
2023-02-21T04:50:18.231Z,11.13
2023-02-21T04:52:44.882Z,15.45
2023-02-21T04:55:11.361Z,12.38
2023-02-21T04:57:38.004Z,13.50
2023-02-21T05:00:07.619Z,9.68
2023-02-21T05:02:34.667Z,14.88
2023-02-21T05:05:01.299Z,16.92
2023-02-21T05:07:27.966Z,12.80
2023-02-21T05:09:54.602Z,11.73
2023-02-21T05:12:21.604Z,12.50
2023-02-21T05:14:50.215Z,6.80
2023-02-21T05:17:17.153Z,8.40
2023-02-21T05:19:43.740Z,14.40
2023-02-21T05:22:10.585Z,9.20
2023-02-21T05:24:42.636Z,12.07
2023-02-21T05:27:15.764Z,9.82
2023-02-21T05:29:46.193Z,7.63
2023-02-21T05:32:12.835Z,11.45
2023-02-21T05:34:41.425Z,9.35
2023-02-21T05:37:08.017Z,11.27
2023-02-21T05:39:34.621Z,9.07
2023-02-21T05:42:01.119Z,11.60
2023-02-21T05:44:27.803Z,17.35
2023-02-21T05:46:54.421Z,13.63
2023-02-21T05:49:20.975Z,15.68
2023-02-21T05:51:47.491Z,14.80
2023-02-21T05:54:17.769Z,9.52
2023-02-21T05:56:45.680Z,9.95
2023-02-21T05:59:13.038Z,11.32
2023-02-21T06:01:39.931Z,14.38
2023-02-21T06:04:07.629Z,10.07
2023-02-21T06:06:34.934Z,10.20
2023-02-21T06:09:01.441Z,12.50
2023-02-21T06:11:31.872Z,15.35
2023-02-21T06:14:00.070Z,14.40
2023-02-21T06:16:28.768Z,10.85
2023-02-21T06:18:56.964Z,11.52
2023-02-21T06:21:23.478Z,8.70
2023-02-21T06:26:17.529Z,13.10
2023-02-21T06:28:44.057Z,12.90
2023-02-21T06:31:10.823Z,9.05
2023-02-21T06:33:37.395Z,9.27
2023-02-21T06:36:10.832Z,17.90
2023-02-21T06:38:37.707Z,14.43
2023-02-21T06:41:08.754Z,10.38
2023-02-21T06:43:38.741Z,12.63
2023-02-21T06:46:05.545Z,14.23
2023-02-21T06:48:32.373Z,9.57
2023-02-21T06:50:59.217Z,26.15
2023-02-21T06:53:25.772Z,28.02
2023-02-21T06:55:53.054Z,60.13
2023-02-21T06:58:19.527Z,36.58
2023-02-21T07:00:46.022Z,25.02
2023-02-21T07:03:12.463Z,14.02
2023-02-21T07:08:05.617Z,14.63
2023-02-21T07:10:32.108Z,14.80
2023-02-21T07:12:58.590Z,20.70
2023-02-21T07:15:25.433Z,19.20
2023-02-21T07:17:51.924Z,13.48
2023-02-21T07:20:18.535Z,13.85
2023-02-21T07:22:45.023Z,11.77
2023-02-21T07:25:17.103Z,18.42
2023-02-21T07:27:43.617Z,13.10
2023-02-21T07:30:11.986Z,14.80
2023-02-21T07:32:38.482Z,21.95
2023-02-21T07:37:31.716Z,18.30
2023-02-21T07:39:58.298Z,13.02
2023-02-21T07:42:25.034Z,14.65
2023-02-21T07:44:57.258Z,22.27
2023-02-21T07:47:25.282Z,10.15
2023-02-21T07:49:54.009Z,14.18
2023-02-21T07:52:22.412Z,12.35
2023-02-21T07:54:49.061Z,9.65
2023-02-21T07:57:16.972Z,14.18
2023-02-21T07:59:43.863Z,10.77
2023-02-21T08:02:12.230Z,14.23
2023-02-21T08:04:39.119Z,18.10
2023-02-21T08:07:06.114Z,13.88
2023-02-21T08:09:33.309Z,12.63
2023-02-21T08:12:00.220Z,13.65
2023-02-21T08:14:26.917Z,14.02
2023-02-21T08:16:53.555Z,9.90
2023-02-21T08:19:20.219Z,12.90
2023-02-21T08:21:48.794Z,9.25
2023-02-21T08:24:16.146Z,12.98
2023-02-21T08:26:45.376Z,12.82
2023-02-21T08:29:13.993Z,11.05
2023-02-21T08:31:41.937Z,19.75
2023-02-21T08:34:09.199Z,14.18
2023-02-21T08:36:38.786Z,14.13
2023-02-21T08:39:06.396Z,13.07
2023-02-21T08:41:36.832Z,12.85
2023-02-21T08:44:03.311Z,18.35
2023-02-21T08:48:56.195Z,12.70
2023-02-21T08:53:52.899Z,18.10
2023-02-21T08:58:49.455Z,11.68
2023-02-21T09:01:17.274Z,11.15
2023-02-21T09:03:43.981Z,15.00
2023-02-21T09:08:37.833Z,14.77
2023-02-21T09:11:04.731Z,15.20
2023-02-21T09:13:32.901Z,14.65
2023-02-21T09:16:01.224Z,11.85
2023-02-21T09:18:28.631Z,15.98
2023-02-21T09:20:57.408Z,14.20
2023-02-21T09:23:25.797Z,11.32
2023-02-21T09:25:52.778Z,11.82
2023-02-21T09:28:19.921Z,16.33
2023-02-21T09:30:47.772Z,15.52
2023-02-21T09:33:15.437Z,11.35
2023-02-21T09:35:42.047Z,13.95
2023-02-21T09:38:09.329Z,17.40
2023-02-21T09:40:38.798Z,11.32
2023-02-21T09:43:11.736Z,14.43
2023-02-21T09:45:38.711Z,11.93
2023-02-21T09:48:13.614Z,15.10
2023-02-21T09:50:44.428Z,12.68
2023-02-21T09:53:14.794Z,12.55
2023-02-21T09:55:42.171Z,12.85
2023-02-21T09:58:18.926Z,13.95
2023-02-21T10:00:46.825Z,11.55
2023-02-21T10:03:35.505Z,14.07
2023-02-21T10:06:24.992Z,14.27
2023-02-21T10:09:26.766Z,11.38
2023-02-21T10:12:10.365Z,11.50
2023-02-21T10:14:53.956Z,10.82
2023-02-21T10:17:29.148Z,12.07
2023-02-21T10:20:04.234Z,14.50
2023-02-21T10:22:37.706Z,10.23
2023-02-21T10:25:30.659Z,6.80
2023-02-21T10:27:59.061Z,10.15
2023-02-21T10:30:38.025Z,11.40
2023-02-21T10:33:06.334Z,8.07
2023-02-21T10:35:34.013Z,8.93
2023-02-21T10:38:03.059Z,11.55
2023-02-21T10:40:39.830Z,14.05
2023-02-21T10:43:27.855Z,10.18
2023-02-21T10:45:57.268Z,13.38
2023-02-21T10:48:29.186Z,16.88
2023-02-21T10:51:04.721Z,7.82
2023-02-21T10:53:42.512Z,5.40
2023-02-21T10:56:15.244Z,5.40
2023-02-21T10:58:47.998Z,4.85
2023-02-21T11:01:18.454Z,8.07
2023-02-21T11:03:49.701Z,9.70
2023-02-21T11:06:38.132Z,5.47
2023-02-21T11:09:31.706Z,5.90
2023-02-21T11:12:19.878Z,7.97
2023-02-21T11:14:52.635Z,6.78
2023-02-21T11:32:35.107Z,5.47
2023-02-21T11:35:07.203Z,5.00
2023-02-21T11:37:34.936Z,4.88
2023-02-21T11:40:02.694Z,7.63
2023-02-21T11:42:34.399Z,9.05
2023-02-21T11:45:13.859Z,4.30
2023-02-21T11:47:50.803Z,4.80
2023-02-21T11:50:20.163Z,6.13
2023-02-21T11:53:15.050Z,6.50
2023-02-21T11:55:48.090Z,4.07
2023-02-21T11:58:26.780Z,8.20
2023-02-21T12:01:06.844Z,8.70
2023-02-21T12:03:51.454Z,6.45
2023-02-21T12:06:41.834Z,7.13
2023-02-21T12:09:44.117Z,6.32
2023-02-21T12:12:29.210Z,7.22
2023-02-21T12:15:11.961Z,4.85
2023-02-21T12:18:20.511Z,6.78
2023-02-21T12:21:11.184Z,7.10
2023-02-21T12:24:05.140Z,11.98
2023-02-21T12:26:51.529Z,4.88
2023-02-21T12:29:42.446Z,20.15
2023-02-21T12:32:22.190Z,6.22
2023-02-21T12:35:11.942Z,6.25
2023-02-21T12:38:04.223Z,6.32
2023-02-21T12:40:49.179Z,6.00
2023-02-21T12:43:24.689Z,5.38
2023-02-21T12:46:13.265Z,4.53
2023-02-21T12:48:51.166Z,6.80
2023-02-21T12:51:21.954Z,3.17
2023-02-21T12:53:57.554Z,3.13
2023-02-21T12:56:31.080Z,6.97
2023-02-21T12:59:08.125Z,2.65
2023-02-21T13:04:22.427Z,8.07
2023-02-21T13:06:58.642Z,3.05
2023-02-21T13:09:37.021Z,2.83
2023-02-21T13:12:09.432Z,3.38
2023-02-21T13:14:47.904Z,3.78
2023-02-21T13:17:17.125Z,2.47
2023-02-21T13:19:55.588Z,9.80
2023-02-21T13:23:18.374Z,3.83
2023-02-21T13:25:53.084Z,6.47
2023-02-21T13:28:25.507Z,4.55
2023-02-21T13:31:03.733Z,2.72
2023-02-21T13:33:50.353Z,4.72
2023-02-21T13:36:41.688Z,4.03
2023-02-21T13:39:31.880Z,2.03
2023-02-21T13:42:20.441Z,3.67
2023-02-21T13:45:11.572Z,3.03
2023-02-21T13:48:01.298Z,3.95
2023-02-21T13:50:35.171Z,3.17
2023-02-21T13:53:16.441Z,3.65
2023-02-21T13:56:08.008Z,3.50
2023-02-21T13:58:40.580Z,2.63
2023-02-21T14:01:22.517Z,3.70
2023-02-21T14:03:51.231Z,3.00
2023-02-21T14:06:35.663Z,3.03
2023-02-21T14:09:11.696Z,4.32
2023-02-21T14:11:47.041Z,3.28
2023-02-21T14:14:25.063Z,7.78
2023-02-21T14:17:04.829Z,5.25
2023-02-21T14:19:43.857Z,5.25
2023-02-21T14:22:14.546Z,2.45
2023-02-21T14:24:48.491Z,8.45
2023-02-21T14:27:15.054Z,5.07
2023-02-21T14:32:09.680Z,5.63
2023-02-21T14:34:38.567Z,4.13
2023-02-21T14:37:28.203Z,6.10
2023-02-21T14:40:14.908Z,4.55
2023-02-21T14:42:44.111Z,9.63
2023-02-21T14:45:10.630Z,5.35
2023-02-21T14:50:25.510Z,5.20
2023-02-21T14:53:13.650Z,4.13
2023-02-21T14:56:08.003Z,4.85
2023-02-21T14:58:52.247Z,8.77
2023-02-21T15:01:43.656Z,4.68
2023-02-21T15:04:28.495Z,4.38
2023-02-21T15:07:16.191Z,9.30
2023-02-21T15:12:17.272Z,2.40
2023-02-21T15:14:51.264Z,6.07
2023-02-21T15:17:21.472Z,8.27
2023-02-21T15:20:00.816Z,7.45
2023-02-21T15:22:27.947Z,7.20
2023-02-21T15:25:11.764Z,8.05
2023-02-21T15:27:53.419Z,3.50
2023-02-21T15:30:24.634Z,3.58
2023-02-21T15:32:57.020Z,3.75
2023-02-21T15:35:30.025Z,8.43
2023-02-21T15:37:59.425Z,10.45
2023-02-21T15:40:27.703Z,9.27
2023-02-21T15:42:55.383Z,6.03
2023-02-21T15:45:30.203Z,5.97
2023-02-21T15:47:58.545Z,11.02
2023-02-21T15:50:43.873Z,7.32
2023-02-21T15:53:30.734Z,6.47
2023-02-21T15:56:17.113Z,7.72
2023-02-21T15:59:07.805Z,5.20
2023-02-21T16:01:34.491Z,9.50
2023-02-21T16:04:19.301Z,9.20
2023-02-21T16:06:52.266Z,11.63
2023-02-21T16:09:31.206Z,22.27
2023-02-21T16:12:18.466Z,4.85
2023-02-21T16:14:46.401Z,9.07
2023-02-21T16:17:12.881Z,7.72
2023-02-21T16:19:48.011Z,9.20
2023-02-21T16:22:59.728Z,6.25
2023-02-21T16:25:25.760Z,4.28
2023-02-21T16:27:56.174Z,6.00
2023-02-21T16:30:25.779Z,8.02
2023-02-21T16:32:54.669Z,7.30
2023-02-21T16:35:23.960Z,5.22
2023-02-21T16:37:53.350Z,4.20
2023-02-21T16:40:24.882Z,4.68
2023-02-21T16:42:52.714Z,4.85
2023-02-21T16:45:20.149Z,5.35
2023-02-21T16:47:49.861Z,5.20
2023-02-21T16:50:29.299Z,10.20
2023-02-21T16:52:55.767Z,9.60
2023-02-21T16:57:52.852Z,6.10
2023-02-21T17:00:22.049Z,7.25
2023-02-21T17:02:50.100Z,9.20
2023-02-21T17:05:17.843Z,5.63
2023-02-21T17:07:44.539Z,8.88
2023-02-21T17:10:11.965Z,7.75
2023-02-21T17:12:38.490Z,6.20
2023-02-21T17:17:32.017Z,7.72
2023-02-21T17:22:25.017Z,8.23
2023-02-21T17:27:17.990Z,8.60
2023-02-21T17:32:10.998Z,9.25
2023-02-21T17:37:04.752Z,11.77
2023-02-21T17:39:31.545Z,10.52
2023-02-21T17:41:58.077Z,8.93
2023-02-21T17:46:56.215Z,8.15
2023-02-21T17:49:25.709Z,12.30
2023-02-21T17:51:53.197Z,8.25
2023-02-21T17:54:24.181Z,6.20
2023-02-21T17:56:51.316Z,10.07
2023-02-21T17:59:19.115Z,13.02
2023-02-21T18:01:46.785Z,17.55
2023-02-21T18:04:14.292Z,14.93
2023-02-21T18:06:42.013Z,21.35
2023-02-21T18:09:08.554Z,21.48
2023-02-21T18:14:05.080Z,20.23
2023-02-21T18:16:31.653Z,26.42
2023-02-21T18:18:58.181Z,18.15
2023-02-21T18:23:52.049Z,21.40
2023-02-21T18:26:18.858Z,19.65
2023-02-21T18:28:45.405Z,19.00
2023-02-21T18:33:41.894Z,21.48
2023-02-21T18:38:35.754Z,17.60
2023-02-21T18:41:03.618Z,14.35
2023-02-21T18:43:30.585Z,15.05
2023-02-21T18:45:58.620Z,13.23
2023-02-21T18:48:26.602Z,11.20
2023-02-21T18:50:53.573Z,14.93
2023-02-21T18:53:20.808Z,11.90
2023-02-21T18:55:47.361Z,13.52
2023-02-21T18:58:14.037Z,15.68
2023-02-21T19:00:40.901Z,11.48
2023-02-21T19:03:08.843Z,11.05
2023-02-21T19:05:35.406Z,9.70
2023-02-21T19:08:03.370Z,11.40
2023-02-21T19:10:30.935Z,7.47
2023-02-21T19:13:02.161Z,10.95
2023-02-21T19:15:31.657Z,11.50
2023-02-21T19:17:58.874Z,14.68
2023-02-21T19:20:25.653Z,11.23
2023-02-21T19:22:54.254Z,9.93
2023-02-21T19:25:25.082Z,9.02
2023-02-21T19:27:51.530Z,11.35
2023-02-21T19:32:46.482Z,15.50
2023-02-21T19:37:39.683Z,13.53
2023-02-21T19:40:07.945Z,15.77
2023-02-21T19:42:35.468Z,17.42
2023-02-21T19:45:02.797Z,16.38
2023-02-21T19:47:29.735Z,14.25
2023-02-21T19:49:56.334Z,14.93
2023-02-21T19:52:22.873Z,14.38
2023-02-21T19:57:15.921Z,19.20
2023-02-21T19:59:42.421Z,18.23
2023-02-21T20:04:37.061Z,15.80
2023-02-21T20:07:04.935Z,16.35
2023-02-21T20:09:31.416Z,22.15
2023-02-21T20:14:24.964Z,18.67
2023-02-21T20:19:20.883Z,21.73
2023-02-21T20:21:47.335Z,18.35
2023-02-21T20:26:40.390Z,22.92
2023-02-21T20:29:07.121Z,22.52
2023-02-21T20:31:37.164Z,28.85
2023-02-21T20:34:05.442Z,18.98
2023-02-21T20:36:36.376Z,24.75
2023-02-21T20:39:04.354Z,18.33
2023-02-21T20:41:34.120Z,17.35
2023-02-21T20:44:00.996Z,20.75
2023-02-21T20:46:28.837Z,17.02
2023-02-21T20:48:58.623Z,17.30
2023-02-21T20:51:33.273Z,14.82
2023-02-21T20:54:01.047Z,17.67
2023-02-21T20:56:41.886Z,16.65
2023-02-21T20:59:15.746Z,20.33
2023-02-21T21:01:48.131Z,21.88
2023-02-21T21:04:20.201Z,18.35
2023-02-21T21:06:47.390Z,17.30
2023-02-21T21:09:17.723Z,16.48
2023-02-21T21:11:45.055Z,18.90
2023-02-21T21:14:13.908Z,20.70
2023-02-21T21:16:42.348Z,22.55
2023-02-21T21:19:08.919Z,24.00
2023-02-21T21:21:37.850Z,29.50
2023-02-21T21:24:07.139Z,22.10
2023-02-21T21:26:34.039Z,27.45
2023-02-21T21:29:01.384Z,30.70
2023-02-21T21:31:27.937Z,25.63
2023-02-21T21:33:56.300Z,29.95
2023-02-21T21:36:22.935Z,28.95
2023-02-21T21:38:49.357Z,25.52
2023-02-21T21:43:43.948Z,25.10
2023-02-21T21:46:11.673Z,19.23
2023-02-21T21:48:41.819Z,21.10
2023-02-21T21:51:09.471Z,23.55
2023-02-21T21:53:39.935Z,18.02
2023-02-21T21:56:11.293Z,20.35
2023-02-21T21:58:37.934Z,22.83
2023-02-21T22:01:07.513Z,25.05
2023-02-21T22:03:35.631Z,26.73
2023-02-21T22:06:02.576Z,21.05
2023-02-21T22:08:29.340Z,22.20
2023-02-21T22:10:56.129Z,21.70
2023-02-21T22:13:22.612Z,25.65
2023-02-21T22:18:18.388Z,25.20
2023-02-21T22:20:49.395Z,21.75
2023-02-21T22:23:17.312Z,20.00
2023-02-21T22:25:43.964Z,23.92
2023-02-21T22:28:13.308Z,18.65
2023-02-21T22:30:40.759Z,16.52
2023-02-21T22:33:13.293Z,19.25
2023-02-21T22:35:40.922Z,17.38
2023-02-21T22:38:14.092Z,17.77
2023-02-21T22:40:42.047Z,19.50
2023-02-21T22:43:08.988Z,19.10
2023-02-21T22:45:36.800Z,17.58
2023-02-21T22:48:06.976Z,17.55
2023-02-21T22:50:36.938Z,17.35
2023-02-21T22:53:08.109Z,16.30
2023-02-21T22:55:37.034Z,16.10
2023-02-21T22:58:08.212Z,15.50
2023-02-21T23:17:31.024Z,14.73
2023-02-21T23:19:57.558Z,15.73
2023-02-21T23:22:25.131Z,17.65
2023-02-21T23:24:51.651Z,17.95
2023-02-21T23:27:18.187Z,16.40
2023-02-21T23:29:45.357Z,16.83
2023-02-21T23:32:12.688Z,16.90
2023-02-21T23:34:42.077Z,17.67
2023-02-21T23:37:11.988Z,18.85
2023-02-21T23:39:40.883Z,17.25
2023-02-21T23:42:07.501Z,16.08
2023-02-21T23:44:36.137Z,15.63
2023-02-21T23:47:05.884Z,16.92
2023-02-21T23:49:32.411Z,16.13
2023-02-21T23:52:01.251Z,17.98
2023-02-21T23:54:27.769Z,16.63
2023-02-21T23:56:54.294Z,21.45
2023-02-21T23:59:20.948Z,28.17
